logo
Search for airport 
image banner adimage banner adimage banner ad
image banner ad

OIKQ - Gheshm Island / Dayrestan

Located in Gheshm, Iran, Islamic Republic of

ICAO - OIKQ, IATA - GSM

Data provided by Airmate  

General information

Coordinates: N26°45'7" E55°53'50"
Elevation is 45 feet MSL.
 
View others Airports in Hormozgan Province

Operational data

Special qualification required
Current time UTC:
Current local time:
Weather
METAR: OIKQ 130500Z 23014KT 8000 NSC 27/24 Q1006 NOSIG
View NOTAMs / SUP AIP / TFR affecting this airport [VIEW]
Communications frequencies: [VIEW]

Runways:

RWY identifierQFULength (ft)Width (ft)SurfaceLDA (ft)
0550°13862148ASP
23230°13862148ASP

Airport contact information

Address: Gheshm Iran, Islamic Republic of

Satellite view of OIKQ